createdAt,value
2023-03-17T00:00:53.546Z,21.35
2023-03-17T00:03:30.701Z,22.08
2023-03-17T00:08:36.013Z,22.05
2023-03-17T00:11:07.758Z,22.58
2023-03-17T00:13:38.899Z,22.58
2023-03-17T00:16:17.318Z,21.42
2023-03-17T00:18:51.150Z,21.60
2023-03-17T00:23:56.365Z,20.55
2023-03-17T00:26:27.750Z,21.98
2023-03-17T00:28:58.881Z,24.17
2023-03-17T00:31:30.826Z,23.35
2023-03-17T00:34:03.147Z,22.45
2023-03-17T00:36:35.053Z,21.40
2023-03-17T00:41:42.834Z,21.88
2023-03-17T00:44:14.564Z,21.90
2023-03-17T00:46:46.697Z,21.83
2023-03-17T00:49:22.245Z,22.25
2023-03-17T00:51:53.490Z,22.00
2023-03-17T00:54:25.616Z,22.63
2023-03-17T00:56:56.484Z,20.67
2023-03-17T00:59:35.539Z,23.42
2023-03-17T01:02:06.022Z,20.75
2023-03-17T01:04:39.830Z,21.50
2023-03-17T01:07:12.095Z,22.30
2023-03-17T01:09:44.176Z,20.52
2023-03-17T01:12:15.532Z,19.85
2023-03-17T01:14:46.643Z,20.40
2023-03-17T01:17:19.789Z,20.25
2023-03-17T01:22:21.858Z,19.15
2023-03-17T01:24:52.963Z,18.67
2023-03-17T01:27:23.290Z,17.85
2023-03-17T01:29:55.450Z,18.55
2023-03-17T01:32:25.929Z,17.25
2023-03-17T01:34:58.131Z,18.15
2023-03-17T01:37:28.818Z,18.27
2023-03-17T01:39:59.712Z,17.90
2023-03-17T01:42:30.978Z,17.13
2023-03-17T01:45:05.796Z,16.85
2023-03-17T01:47:36.489Z,17.70
2023-03-17T01:50:12.288Z,16.42
2023-03-17T01:52:43.119Z,17.08
2023-03-17T01:55:17.473Z,15.57
2023-03-17T01:57:53.688Z,15.90
2023-03-17T02:00:26.724Z,14.82
2023-03-17T02:02:58.432Z,14.98
2023-03-17T02:05:33.137Z,15.80
2023-03-17T02:08:03.533Z,14.98
2023-03-17T02:10:34.274Z,15.60
2023-03-17T02:13:06.007Z,16.45
2023-03-17T02:15:42.660Z,19.20
2023-03-17T02:18:14.704Z,19.10
2023-03-17T02:21:39.461Z,17.48
2023-03-17T02:24:22.545Z,16.13
2023-03-17T02:26:56.888Z,15.57
2023-03-17T02:29:28.132Z,15.60
2023-03-17T02:31:59.422Z,14.93
2023-03-17T02:34:31.603Z,15.93
2023-03-17T02:37:03.762Z,15.65
2023-03-17T02:39:34.065Z,14.57
2023-03-17T02:42:05.692Z,14.98
2023-03-17T02:44:38.020Z,15.20
2023-03-17T02:47:09.850Z,15.85
2023-03-17T02:49:43.123Z,15.55
2023-03-17T02:52:15.266Z,14.30
2023-03-17T02:54:45.566Z,14.93
2023-03-17T02:57:16.884Z,15.10
2023-03-17T02:59:47.276Z,15.20
2023-03-17T03:02:18.675Z,15.30
2023-03-17T03:04:48.931Z,15.88
2023-03-17T03:07:20.972Z,16.42
2023-03-17T03:09:51.603Z,15.60
2023-03-17T03:12:22.429Z,15.68
2023-03-17T03:14:53.017Z,16.33
2023-03-17T03:17:24.099Z,15.55
2023-03-17T03:19:54.694Z,15.65
2023-03-17T03:22:27.054Z,14.80
2023-03-17T03:24:57.346Z,15.20
2023-03-17T03:27:28.136Z,14.52
2023-03-17T03:29:58.429Z,14.93
2023-03-17T03:32:29.722Z,15.43
2023-03-17T03:35:00.977Z,14.13
2023-03-17T03:37:33.736Z,15.63
2023-03-17T03:40:04.493Z,15.90
2023-03-17T03:42:35.338Z,15.15
2023-03-17T03:45:06.464Z,15.73
2023-03-17T03:47:37.304Z,14.20
2023-03-17T03:50:09.292Z,14.52
2023-03-17T03:52:41.769Z,15.20
2023-03-17T03:55:12.835Z,14.70
2023-03-17T03:57:43.614Z,15.98
2023-03-17T04:00:16.487Z,15.27
2023-03-17T04:02:47.556Z,16.48
2023-03-17T04:05:19.848Z,15.32
2023-03-17T04:07:51.937Z,12.33
2023-03-17T04:10:23.275Z,16.98
2023-03-17T04:12:54.002Z,15.30
2023-03-17T04:15:24.580Z,15.73
2023-03-17T04:17:57.092Z,15.50
2023-03-17T04:20:28.084Z,16.38
2023-03-17T04:23:00.517Z,17.27
2023-03-17T04:25:31.046Z,16.83
2023-03-17T04:28:01.907Z,17.48
2023-03-17T04:30:32.955Z,16.58
2023-03-17T04:33:03.829Z,15.80
2023-03-17T04:35:34.188Z,16.80
2023-03-17T04:38:07.080Z,15.73
2023-03-17T04:40:37.456Z,15.30
2023-03-17T04:43:09.238Z,15.18
2023-03-17T04:45:40.181Z,15.40
2023-03-17T04:48:11.220Z,15.82
2023-03-17T04:50:42.479Z,15.95
2023-03-17T04:53:14.755Z,14.63
2023-03-17T04:55:45.528Z,14.65
2023-03-17T04:58:30.052Z,15.05
2023-03-17T05:01:02.635Z,16.15
2023-03-17T05:03:33.602Z,16.83
2023-03-17T05:06:05.225Z,15.13
2023-03-17T05:08:37.297Z,18.42
2023-03-17T05:11:07.728Z,15.98
2023-03-17T05:13:38.413Z,17.50
2023-03-17T05:16:10.061Z,17.40
2023-03-17T05:18:42.089Z,17.98
2023-03-17T05:21:12.682Z,17.60
2023-03-17T05:23:44.890Z,15.77
2023-03-17T05:26:15.059Z,16.52
2023-03-17T05:28:45.694Z,17.13
2023-03-17T05:31:16.278Z,17.60
2023-03-17T05:33:49.315Z,18.27
2023-03-17T05:36:19.930Z,19.03
2023-03-17T05:38:52.546Z,18.42
2023-03-17T05:41:23.371Z,18.33
2023-03-17T05:43:54.337Z,20.02
2023-03-17T05:46:24.794Z,18.48
2023-03-17T05:48:55.605Z,18.75
2023-03-17T05:51:25.921Z,19.63
2023-03-17T05:53:58.502Z,20.33
2023-03-17T05:56:33.662Z,18.55
2023-03-17T05:59:05.573Z,18.25
2023-03-17T06:01:36.479Z,18.05
2023-03-17T06:04:08.020Z,17.13
2023-03-17T06:06:39.126Z,15.80
2023-03-17T06:09:11.296Z,16.25
2023-03-17T06:11:41.828Z,17.17
2023-03-17T06:14:13.337Z,16.63
2023-03-17T06:16:43.691Z,15.38
2023-03-17T06:19:14.568Z,16.52
2023-03-17T06:21:45.122Z,17.88
2023-03-17T06:24:17.567Z,17.35
2023-03-17T06:26:47.806Z,16.48
2023-03-17T06:29:18.711Z,17.33
2023-03-17T06:31:51.020Z,17.48
2023-03-17T06:34:23.903Z,16.90
2023-03-17T06:36:54.692Z,18.48
2023-03-17T06:39:26.968Z,17.77
2023-03-17T06:41:57.276Z,17.35
2023-03-17T06:44:28.121Z,17.02
2023-03-17T06:46:58.657Z,17.40
2023-03-17T06:49:29.532Z,16.83
2023-03-17T06:52:00.164Z,16.65
2023-03-17T06:54:33.000Z,15.80
2023-03-17T06:57:03.387Z,17.10
2023-03-17T06:59:34.094Z,17.98
2023-03-17T07:02:05.418Z,16.65
2023-03-17T07:04:38.209Z,16.08
2023-03-17T07:07:09.049Z,16.95
2023-03-17T07:09:42.049Z,16.10
2023-03-17T07:12:13.455Z,17.00
2023-03-17T07:14:44.162Z,16.95
2023-03-17T07:17:16.164Z,16.80
2023-03-17T07:19:47.147Z,16.60
2023-03-17T07:22:17.589Z,18.17
2023-03-17T07:24:49.940Z,18.13
2023-03-17T07:27:23.099Z,17.88
2023-03-17T07:29:54.425Z,18.75
2023-03-17T07:32:24.830Z,18.80
2023-03-17T07:34:55.703Z,18.08
2023-03-17T07:37:26.469Z,19.25
2023-03-17T07:39:58.705Z,19.70
2023-03-17T07:42:30.216Z,18.88
2023-03-17T07:45:01.064Z,18.13
2023-03-17T07:47:31.604Z,19.60
2023-03-17T07:50:02.533Z,20.00
2023-03-17T07:52:33.150Z,19.65
2023-03-17T07:55:08.612Z,20.00
2023-03-17T07:57:39.428Z,19.48
2023-03-17T08:00:13.828Z,20.02
2023-03-17T08:02:48.131Z,22.10
2023-03-17T08:05:22.238Z,23.05
2023-03-17T08:07:52.860Z,19.55
2023-03-17T08:10:25.209Z,18.98
2023-03-17T08:12:55.859Z,20.08
2023-03-17T08:15:27.183Z,18.60
2023-03-17T08:17:58.083Z,18.90
2023-03-17T08:20:30.076Z,18.85
2023-03-17T08:23:01.600Z,19.95
2023-03-17T08:25:34.268Z,18.17
2023-03-17T08:28:05.762Z,18.73
2023-03-17T08:30:38.155Z,18.30
2023-03-17T08:33:09.195Z,19.55
2023-03-17T08:35:43.792Z,18.48
2023-03-17T08:38:14.362Z,18.50
2023-03-17T08:40:46.363Z,18.23
2023-03-17T08:43:17.595Z,18.30
2023-03-17T08:45:48.674Z,17.48
2023-03-17T08:48:19.694Z,15.77
2023-03-17T08:50:51.393Z,16.60
2023-03-17T08:53:22.254Z,16.92
2023-03-17T08:55:58.408Z,16.80
2023-03-17T08:58:30.005Z,15.65
2023-03-17T09:01:02.615Z,14.77
2023-03-17T09:03:34.989Z,14.82
2023-03-17T09:06:07.749Z,15.63
2023-03-17T09:08:39.988Z,14.70
2023-03-17T09:11:16.796Z,14.50
2023-03-17T09:13:48.108Z,14.65
2023-03-17T09:16:19.588Z,13.15
2023-03-17T09:18:49.900Z,13.68
2023-03-17T09:21:21.459Z,13.40
2023-03-17T09:23:52.173Z,13.95
2023-03-17T09:26:25.275Z,14.07
2023-03-17T09:28:55.536Z,13.73
2023-03-17T09:31:27.305Z,14.15
2023-03-17T09:33:58.409Z,14.18
2023-03-17T09:36:29.285Z,14.77
2023-03-17T09:38:59.797Z,13.95
2023-03-17T09:42:03.112Z,12.85
2023-03-17T09:45:02.917Z,11.15
2023-03-17T09:47:57.622Z,10.57
2023-03-17T09:50:33.510Z,11.95
2023-03-17T09:53:06.492Z,11.88
2023-03-17T09:55:38.414Z,9.38
2023-03-17T09:58:13.369Z,8.77
2023-03-17T10:00:43.907Z,10.38
2023-03-17T10:03:15.210Z,8.85
2023-03-17T10:05:47.087Z,8.32
2023-03-17T10:08:31.230Z,9.73
2023-03-17T10:11:11.112Z,8.15
2023-03-17T10:13:57.621Z,8.75
2023-03-17T10:16:38.433Z,8.30
2023-03-17T10:19:23.611Z,8.52
2023-03-17T10:22:00.671Z,8.25
2023-03-17T10:24:34.180Z,7.35
2023-03-17T10:27:08.650Z,7.20
2023-03-17T10:29:41.285Z,6.68
2023-03-17T10:32:14.576Z,5.70
2023-03-17T10:34:46.262Z,5.68
2023-03-17T10:37:19.864Z,6.18
2023-03-17T10:39:53.303Z,6.63
2023-03-17T10:42:26.654Z,5.70
2023-03-17T10:45:03.294Z,5.47
2023-03-17T10:47:35.962Z,6.03
2023-03-17T10:50:23.067Z,6.30
2023-03-17T10:53:00.769Z,5.15
2023-03-17T10:55:35.445Z,5.32
2023-03-17T10:58:09.450Z,5.10
2023-03-17T11:00:51.225Z,4.53
2023-03-17T11:03:27.319Z,5.13
2023-03-17T11:06:02.711Z,4.47
2023-03-17T11:08:35.705Z,4.10
2023-03-17T11:13:39.545Z,4.97
2023-03-17T11:16:23.502Z,4.80
2023-03-17T11:21:31.673Z,3.22
2023-03-17T11:24:10.651Z,4.47
2023-03-17T11:26:57.773Z,4.10
2023-03-17T11:29:50.400Z,3.55
2023-03-17T11:32:33.438Z,3.85
2023-03-17T11:35:36.000Z,4.65
2023-03-17T11:38:26.102Z,3.75
2023-03-17T11:41:37.152Z,4.50
2023-03-17T11:44:39.057Z,4.15
2023-03-17T11:47:24.285Z,4.38
2023-03-17T11:50:12.355Z,4.20
2023-03-17T11:53:00.222Z,4.45
2023-03-17T11:55:40.897Z,4.20
2023-03-17T11:58:18.815Z,3.80
2023-03-17T12:00:57.206Z,3.53
2023-03-17T12:03:36.113Z,3.92
2023-03-17T12:06:18.089Z,3.47
2023-03-17T12:08:56.747Z,4.28
2023-03-17T12:11:32.254Z,4.40
2023-03-17T12:14:07.536Z,3.90
2023-03-17T12:16:46.043Z,4.13
2023-03-17T12:19:23.079Z,3.40
2023-03-17T12:22:00.575Z,3.90
2023-03-17T12:24:40.138Z,3.58
2023-03-17T12:27:17.405Z,3.45
2023-03-17T12:29:53.617Z,3.72
2023-03-17T12:32:30.898Z,3.50
2023-03-17T12:35:11.255Z,3.83
2023-03-17T12:37:44.184Z,3.35
2023-03-17T12:40:20.429Z,4.10
2023-03-17T12:42:54.842Z,3.17
2023-03-17T12:45:53.264Z,3.80
2023-03-17T12:49:17.773Z,3.13
2023-03-17T12:52:20.888Z,3.20
2023-03-17T12:54:54.332Z,3.33
2023-03-17T12:57:31.130Z,3.38
2023-03-17T13:00:09.140Z,3.03
2023-03-17T13:02:41.526Z,3.55
2023-03-17T13:05:18.805Z,3.63
2023-03-17T13:07:54.003Z,3.40
2023-03-17T13:10:42.809Z,3.35
2023-03-17T13:13:37.881Z,3.90
2023-03-17T13:16:30.083Z,4.10
2023-03-17T13:19:24.324Z,3.65
2023-03-17T13:22:35.807Z,3.58
2023-03-17T13:25:32.415Z,3.70
2023-03-17T13:31:30.870Z,3.85
2023-03-17T13:34:16.398Z,3.72
2023-03-17T13:36:58.103Z,3.40
2023-03-17T13:40:08.364Z,3.53
2023-03-17T13:43:05.008Z,3.80
2023-03-17T13:45:41.533Z,3.53
2023-03-17T13:48:36.487Z,3.17
2023-03-17T13:51:21.309Z,3.38
2023-03-17T13:53:56.726Z,3.55
2023-03-17T13:56:47.210Z,3.60
2023-03-17T13:59:20.020Z,3.90
2023-03-17T14:01:57.814Z,4.00
2023-03-17T14:04:37.578Z,3.50
2023-03-17T14:07:18.542Z,4.38
2023-03-17T14:09:53.544Z,3.92
2023-03-17T14:12:34.528Z,4.22
2023-03-17T14:15:09.373Z,4.57
2023-03-17T14:17:46.763Z,4.57
2023-03-17T14:20:28.012Z,3.80
2023-03-17T14:23:01.975Z,3.88
2023-03-17T14:25:36.248Z,3.40
2023-03-17T14:28:13.309Z,4.18
2023-03-17T14:30:54.501Z,4.38
2023-03-17T14:33:27.686Z,3.67
2023-03-17T14:36:03.438Z,4.30
2023-03-17T14:38:36.670Z,3.88
2023-03-17T14:41:17.120Z,3.53
2023-03-17T14:43:48.600Z,3.75
2023-03-17T14:46:23.999Z,4.03
2023-03-17T14:49:01.282Z,4.22
2023-03-17T14:51:37.156Z,4.03
2023-03-17T14:54:16.264Z,4.00
2023-03-17T14:56:52.470Z,3.55
2023-03-17T14:59:28.080Z,4.13
2023-03-17T15:02:00.996Z,4.88
2023-03-17T15:04:34.220Z,4.18
2023-03-17T15:07:08.902Z,4.15
2023-03-17T15:09:41.374Z,3.95
2023-03-17T15:12:20.278Z,4.00
2023-03-17T15:14:54.367Z,4.00
2023-03-17T15:17:30.228Z,4.35
2023-03-17T15:20:05.941Z,3.80
2023-03-17T15:22:48.599Z,4.05
2023-03-17T15:25:28.429Z,3.60
2023-03-17T15:27:59.702Z,4.22
2023-03-17T15:30:44.261Z,4.07
2023-03-17T15:33:23.459Z,4.03
2023-03-17T15:35:54.355Z,3.55
2023-03-17T15:38:27.155Z,3.88
2023-03-17T15:40:58.146Z,4.80
2023-03-17T15:43:28.763Z,4.32
2023-03-17T15:46:04.554Z,4.10
2023-03-17T15:48:38.240Z,3.70
2023-03-17T15:51:09.340Z,4.97
2023-03-17T15:53:41.298Z,4.63
2023-03-17T15:56:19.136Z,4.10
2023-03-17T15:58:52.557Z,4.20
2023-03-17T16:01:25.755Z,4.78
2023-03-17T16:03:58.287Z,4.75
2023-03-17T16:06:29.098Z,4.70
2023-03-17T16:09:00.962Z,4.93
2023-03-17T16:11:33.306Z,4.63
2023-03-17T16:14:03.674Z,4.82
2023-03-17T16:16:38.820Z,5.00
2023-03-17T16:19:16.560Z,4.78
2023-03-17T16:21:47.351Z,4.65
2023-03-17T16:24:22.997Z,4.95
2023-03-17T16:26:54.413Z,4.40
2023-03-17T16:29:24.725Z,5.15
2023-03-17T16:31:55.610Z,4.65
2023-03-17T16:34:26.676Z,5.05
2023-03-17T16:36:57.423Z,4.82
2023-03-17T16:39:29.326Z,4.93
2023-03-17T16:42:02.392Z,5.15
2023-03-17T16:44:33.497Z,4.63
2023-03-17T16:47:04.257Z,4.78
2023-03-17T16:49:37.655Z,4.35
2023-03-17T16:52:09.338Z,4.85
2023-03-17T16:54:41.422Z,4.75
2023-03-17T16:57:14.559Z,6.63
2023-03-17T16:59:45.048Z,4.63
2023-03-17T17:02:18.071Z,4.50
2023-03-17T17:04:49.093Z,5.25
2023-03-17T17:07:20.219Z,4.88
2023-03-17T17:09:52.369Z,5.50
2023-03-17T17:12:23.953Z,5.07
2023-03-17T17:14:55.210Z,5.10
2023-03-17T17:17:26.076Z,4.80
2023-03-17T17:19:57.056Z,5.68
2023-03-17T17:22:28.741Z,5.88
2023-03-17T17:25:00.749Z,5.50
2023-03-17T17:27:32.052Z,5.90
2023-03-17T17:30:03.813Z,5.85
2023-03-17T17:32:35.640Z,5.97
2023-03-17T17:35:07.834Z,6.32
2023-03-17T17:37:39.940Z,5.90
2023-03-17T17:40:17.563Z,6.07
2023-03-17T17:42:48.812Z,7.10
2023-03-17T17:45:20.687Z,5.97
2023-03-17T17:47:52.348Z,6.70
2023-03-17T17:50:27.848Z,6.55
2023-03-17T17:53:05.348Z,6.45
2023-03-17T17:55:37.218Z,6.50
2023-03-17T17:58:08.734Z,7.70
2023-03-17T18:00:40.175Z,7.07
2023-03-17T18:03:12.116Z,7.20
2023-03-17T18:05:42.795Z,6.80
2023-03-17T18:08:16.702Z,7.68
2023-03-17T18:13:23.062Z,6.38
2023-03-17T18:15:54.125Z,7.18
2023-03-17T18:18:25.015Z,7.80
2023-03-17T18:20:56.898Z,7.80
2023-03-17T18:23:28.940Z,8.38
2023-03-17T18:26:06.198Z,8.55
2023-03-17T18:28:37.257Z,9.05
2023-03-17T18:31:13.091Z,8.48
2023-03-17T18:33:47.258Z,7.63
2023-03-17T18:36:18.168Z,8.40
2023-03-17T18:38:49.617Z,12.07
2023-03-17T18:41:21.593Z,9.23
2023-03-17T18:43:52.653Z,8.77
2023-03-17T18:46:23.161Z,9.10
2023-03-17T18:48:54.090Z,10.02
2023-03-17T18:51:24.577Z,9.57
2023-03-17T18:53:56.019Z,9.85
2023-03-17T18:56:29.465Z,10.05
2023-03-17T18:59:01.563Z,8.95
2023-03-17T19:01:31.974Z,8.60
2023-03-17T19:04:04.087Z,8.65
2023-03-17T19:06:35.574Z,10.43
2023-03-17T19:09:06.600Z,9.88
2023-03-17T19:11:39.894Z,10.35
2023-03-17T19:14:11.937Z,9.80
2023-03-17T19:16:43.405Z,10.27
2023-03-17T19:19:13.968Z,10.02
2023-03-17T19:21:44.414Z,11.50
2023-03-17T19:24:15.845Z,11.23
2023-03-17T19:26:47.800Z,12.18
2023-03-17T19:29:18.405Z,11.70
2023-03-17T19:31:49.213Z,11.80
2023-03-17T19:34:20.186Z,12.57
2023-03-17T19:36:51.446Z,13.05
2023-03-17T19:39:22.405Z,12.93
2023-03-17T19:41:55.381Z,12.27
2023-03-17T19:44:26.643Z,13.85
2023-03-17T19:46:57.365Z,12.68
2023-03-17T19:49:28.878Z,11.82
2023-03-17T19:52:00.596Z,12.52
2023-03-17T19:54:33.853Z,11.15
2023-03-17T19:57:06.923Z,11.10
2023-03-17T19:59:37.819Z,11.00
2023-03-17T20:02:09.289Z,11.55
2023-03-17T20:04:40.892Z,11.90
2023-03-17T20:07:12.247Z,10.93
2023-03-17T20:09:45.018Z,11.30
2023-03-17T20:12:17.431Z,10.63
2023-03-17T20:14:49.002Z,11.68
2023-03-17T20:17:21.447Z,10.85
2023-03-17T20:19:52.038Z,11.98
2023-03-17T20:22:22.578Z,12.30
2023-03-17T20:24:53.338Z,12.70
2023-03-17T20:27:25.497Z,14.35
2023-03-17T20:29:57.200Z,12.95
2023-03-17T20:32:27.877Z,14.65
2023-03-17T20:34:58.923Z,14.82
2023-03-17T20:37:29.618Z,14.38
2023-03-17T20:40:02.899Z,12.70
2023-03-17T20:42:35.357Z,12.98
2023-03-17T20:45:07.645Z,13.07
2023-03-17T20:47:38.580Z,11.80
2023-03-17T20:50:13.818Z,12.48
2023-03-17T20:52:45.278Z,11.25
2023-03-17T20:55:17.524Z,11.88
2023-03-17T20:57:51.057Z,11.65
2023-03-17T21:00:23.452Z,11.82
2023-03-17T21:02:54.475Z,12.30
2023-03-17T21:05:28.570Z,11.13
2023-03-17T21:07:59.283Z,11.75
2023-03-17T21:10:30.850Z,11.43
2023-03-17T21:13:03.039Z,11.20
2023-03-17T21:15:34.017Z,12.18
2023-03-17T21:18:04.475Z,12.90
2023-03-17T21:20:35.944Z,12.13
2023-03-17T21:23:08.065Z,13.30
2023-03-17T21:25:39.517Z,13.80
2023-03-17T21:28:13.784Z,13.23
2023-03-17T21:30:46.553Z,12.98
2023-03-17T21:33:17.432Z,11.40
2023-03-17T21:35:49.400Z,12.35
2023-03-17T21:38:20.809Z,12.10
2023-03-17T21:40:52.103Z,12.48
2023-03-17T21:43:24.541Z,11.65
2023-03-17T21:45:56.310Z,11.95
2023-03-17T21:48:27.868Z,12.23
2023-03-17T21:50:59.374Z,11.90
2023-03-17T21:53:30.580Z,11.85
2023-03-17T21:56:01.343Z,13.02
2023-03-17T21:58:33.461Z,12.02
2023-03-17T22:01:04.269Z,12.30
2023-03-17T22:03:34.922Z,13.13
2023-03-17T22:06:06.550Z,11.82
2023-03-17T22:08:37.123Z,13.15
2023-03-17T22:11:11.930Z,15.00
2023-03-17T22:13:44.014Z,15.15
2023-03-17T22:16:16.192Z,15.75
2023-03-17T22:18:47.564Z,15.90
2023-03-17T22:21:18.252Z,16.38
2023-03-17T22:23:49.100Z,15.90
2023-03-17T22:26:22.946Z,15.35
2023-03-17T22:31:27.359Z,15.65
2023-03-17T22:34:01.210Z,14.18
2023-03-17T22:36:32.690Z,14.65
2023-03-17T22:39:03.349Z,15.82
2023-03-17T22:41:34.174Z,17.60
2023-03-17T22:44:06.365Z,16.38
2023-03-17T22:46:37.152Z,15.68
2023-03-17T22:49:07.962Z,15.65
2023-03-17T22:51:41.068Z,17.45
2023-03-17T22:54:11.805Z,16.45
2023-03-17T22:56:43.097Z,16.02
2023-03-17T22:59:14.818Z,15.13
2023-03-17T23:01:46.016Z,15.43
2023-03-17T23:04:16.889Z,13.68
2023-03-17T23:06:47.849Z,14.88
2023-03-17T23:09:18.890Z,15.68
2023-03-17T23:11:49.693Z,16.98
2023-03-17T23:14:21.493Z,17.38
2023-03-17T23:16:52.205Z,18.20
2023-03-17T23:19:22.477Z,17.45
2023-03-17T23:21:53.146Z,15.25
2023-03-17T23:24:23.627Z,13.88
2023-03-17T23:26:54.734Z,14.32
2023-03-17T23:29:27.450Z,14.43
2023-03-17T23:31:58.807Z,15.73
2023-03-17T23:34:29.870Z,17.30
2023-03-17T23:37:01.052Z,16.27
2023-03-17T23:39:31.419Z,15.75
2023-03-17T23:42:04.220Z,17.05
2023-03-17T23:44:36.016Z,14.23
2023-03-17T23:47:07.512Z,13.50
2023-03-17T23:49:38.322Z,12.90
2023-03-17T23:52:09.230Z,13.88
2023-03-17T23:54:39.657Z,12.60
2023-03-17T23:57:11.048Z,14.40
2023-03-17T23:59:43.446Z,13.20
